createdAt,value
2019-01-24T00:04:45.407Z,27.17
2019-01-24T00:07:14.693Z,28.93
2019-01-24T00:09:44.010Z,29.57
2019-01-24T00:12:13.225Z,30.13
2019-01-24T00:14:42.677Z,29.63
2019-01-24T00:17:11.897Z,29.53
2019-01-24T00:19:41.099Z,28.87
2019-01-24T00:22:10.346Z,27.53
2019-01-24T00:24:39.512Z,31.83
2019-01-24T00:29:39.941Z,31.20
2019-01-24T00:32:09.468Z,31.10
2019-01-24T00:34:38.710Z,30.00
2019-01-24T00:37:07.953Z,30.50
2019-01-24T00:39:37.203Z,32.03
2019-01-24T00:42:06.441Z,31.03
2019-01-24T00:44:35.673Z,32.33
2019-01-24T00:47:05.142Z,29.63
2019-01-24T00:49:34.683Z,30.20
2019-01-24T00:52:03.876Z,29.60
2019-01-24T00:54:33.067Z,31.20
2019-01-24T00:57:02.307Z,29.80
2019-01-24T00:59:31.483Z,28.77
2019-01-24T01:02:00.727Z,30.47
2019-01-24T01:04:30.008Z,28.40
2019-01-24T01:07:00.733Z,28.27
2019-01-24T01:09:30.985Z,29.37
2019-01-24T01:12:00.335Z,30.43
2019-01-24T01:14:29.512Z,28.20
2019-01-24T01:16:58.744Z,29.23
2019-01-24T01:19:27.920Z,29.53
2019-01-24T01:21:57.140Z,28.80
2019-01-24T01:24:26.314Z,28.97
2019-01-24T01:26:56.085Z,26.93
2019-01-24T01:29:25.269Z,28.40
2019-01-24T01:31:54.970Z,29.93
2019-01-24T01:34:24.144Z,27.97
2019-01-24T01:36:53.374Z,28.50
2019-01-24T01:39:22.549Z,29.43
2019-01-24T01:41:51.763Z,29.57
2019-01-24T01:44:21.244Z,29.27
2019-01-24T01:46:50.726Z,30.90
2019-01-24T01:49:19.926Z,29.80
2019-01-24T01:51:49.428Z,29.97
2019-01-24T01:54:18.618Z,29.90
2019-01-24T01:56:47.799Z,26.67
2019-01-24T01:59:17.279Z,30.57
2019-01-24T02:01:46.459Z,29.23
2019-01-24T02:04:15.658Z,26.47
2019-01-24T02:06:44.881Z,28.53
2019-01-24T02:09:14.155Z,28.53
2019-01-24T02:11:43.364Z,30.53
2019-01-24T02:14:12.838Z,25.27
2019-01-24T02:16:42.425Z,28.37
2019-01-24T02:19:12.456Z,29.40
2019-01-24T02:21:41.637Z,29.70
2019-01-24T02:24:11.143Z,28.27
2019-01-24T02:26:40.343Z,28.40
2019-01-24T02:29:09.989Z,28.27
2019-01-24T02:31:39.209Z,30.13
2019-01-24T02:34:08.466Z,27.70
2019-01-24T02:36:37.682Z,29.70
2019-01-24T02:39:09.595Z,29.30
2019-01-24T02:41:38.762Z,30.23
2019-01-24T02:44:07.973Z,31.03
2019-01-24T02:46:37.160Z,28.50
2019-01-24T02:49:06.354Z,28.60
2019-01-24T02:51:35.803Z,29.27
2019-01-24T02:54:05.025Z,28.20
2019-01-24T02:56:34.215Z,30.47
2019-01-24T02:59:03.411Z,28.77
2019-01-24T03:01:32.603Z,29.50
2019-01-24T03:04:01.799Z,30.63
2019-01-24T03:06:30.991Z,27.93
2019-01-24T03:09:00.190Z,28.83
2019-01-24T03:11:29.368Z,28.07
2019-01-24T03:13:58.591Z,30.00
2019-01-24T03:16:27.810Z,30.20
2019-01-24T03:18:57.302Z,26.43
2019-01-24T03:21:26.485Z,28.90
2019-01-24T03:23:56.197Z,40.48
2019-01-24T03:26:25.782Z,30.13
2019-01-24T03:28:55.022Z,28.43
2019-01-24T03:31:24.212Z,28.97
2019-01-24T03:33:53.435Z,28.83
2019-01-24T03:36:22.591Z,28.87
2019-01-24T03:38:51.786Z,28.60
2019-01-24T03:41:21.223Z,27.77
2019-01-24T03:43:50.422Z,30.00
2019-01-24T03:46:20.265Z,31.03
2019-01-24T03:48:49.463Z,28.30
2019-01-24T03:51:18.658Z,29.30
2019-01-24T03:53:48.142Z,28.23
2019-01-24T03:56:17.415Z,28.60
2019-01-24T03:58:46.609Z,30.40
2019-01-24T04:01:16.502Z,29.73
2019-01-24T04:03:45.700Z,29.00
2019-01-24T04:06:14.907Z,30.40
2019-01-24T04:08:44.098Z,28.67
2019-01-24T04:11:13.543Z,29.90
2019-01-24T04:13:42.744Z,27.97
2019-01-24T04:16:11.961Z,30.57
2019-01-24T04:18:41.162Z,28.23
2019-01-24T04:21:10.388Z,30.57
2019-01-24T04:23:40.164Z,30.30
2019-01-24T04:26:09.350Z,31.20
2019-01-24T04:28:38.542Z,27.47
2019-01-24T04:31:07.733Z,29.87
2019-01-24T04:33:37.245Z,31.10
2019-01-24T04:36:06.430Z,27.50
2019-01-24T04:38:35.642Z,29.77
2019-01-24T04:41:04.813Z,30.17
2019-01-24T04:43:34.029Z,30.53
2019-01-24T04:46:03.211Z,28.70
2019-01-24T04:48:32.416Z,29.30
2019-01-24T04:51:01.593Z,27.53
2019-01-24T04:53:30.780Z,28.00
2019-01-24T04:55:59.986Z,27.87
2019-01-24T04:58:29.159Z,28.80
2019-01-24T05:00:58.358Z,28.03
2019-01-24T05:03:27.535Z,25.67
2019-01-24T05:05:57.014Z,29.57
2019-01-24T05:08:26.195Z,27.50
2019-01-24T05:10:55.673Z,27.53
2019-01-24T05:13:25.106Z,28.70
2019-01-24T05:15:54.630Z,29.77
2019-01-24T05:18:24.098Z,26.73
2019-01-24T05:20:53.646Z,26.07
2019-01-24T05:23:22.838Z,23.77
2019-01-24T05:25:52.368Z,28.27
2019-01-24T05:28:21.556Z,27.33
2019-01-24T05:30:50.751Z,28.03
2019-01-24T05:33:19.949Z,28.93
2019-01-24T05:35:49.140Z,27.97
2019-01-24T05:38:18.319Z,30.13
2019-01-24T05:40:47.535Z,28.20
2019-01-24T05:43:16.986Z,28.13
2019-01-24T05:45:46.192Z,28.40
2019-01-24T05:48:15.373Z,30.40
2019-01-24T05:50:45.542Z,29.77
2019-01-24T05:53:14.724Z,30.17
2019-01-24T05:55:43.914Z,31.97
2019-01-24T05:58:13.102Z,25.27
2019-01-24T06:03:19.959Z,28.40
2019-01-24T06:05:49.314Z,30.93
2019-01-24T06:08:18.493Z,28.50
2019-01-24T06:10:47.697Z,27.33
2019-01-24T06:13:16.880Z,27.13
2019-01-24T06:15:46.132Z,30.77
2019-01-24T06:18:15.360Z,28.43
2019-01-24T06:20:44.624Z,30.53
2019-01-24T06:23:13.807Z,28.97
2019-01-24T06:25:43.033Z,32.23
2019-01-24T06:28:12.210Z,29.10
2019-01-24T06:30:41.430Z,30.80
2019-01-24T06:33:10.884Z,31.57
2019-01-24T06:35:40.119Z,30.77
2019-01-24T06:38:09.638Z,31.80
2019-01-24T06:40:39.262Z,29.93
2019-01-24T06:43:08.709Z,30.53
2019-01-24T06:45:37.941Z,32.40
2019-01-24T06:48:07.227Z,31.23
2019-01-24T06:50:36.445Z,31.73
2019-01-24T06:53:05.639Z,30.73
2019-01-24T06:55:34.846Z,32.23
2019-01-24T06:58:04.038Z,30.53
2019-01-24T07:00:33.339Z,31.30
2019-01-24T07:03:02.518Z,30.97
2019-01-24T07:05:31.711Z,33.87
2019-01-24T07:08:00.895Z,31.63
2019-01-24T07:10:30.117Z,32.60
2019-01-24T07:12:59.698Z,32.63
2019-01-24T07:15:28.911Z,32.33
2019-01-24T07:17:58.116Z,32.77
2019-01-24T07:20:27.640Z,31.97
2019-01-24T07:22:56.819Z,31.67
2019-01-24T07:25:47.315Z,29.63
2019-01-24T07:28:16.520Z,35.37
2019-01-24T07:30:45.747Z,36.70
2019-01-24T07:33:14.952Z,35.90
2019-01-24T07:35:44.275Z,37.87
2019-01-24T07:38:13.754Z,33.00
2019-01-24T07:40:43.996Z,31.37
2019-01-24T07:43:13.203Z,31.90
2019-01-24T07:45:42.647Z,27.47
2019-01-24T07:48:18.902Z,32.57
2019-01-24T07:50:48.098Z,33.17
2019-01-24T07:53:18.203Z,30.90
2019-01-24T07:55:47.744Z,31.73
2019-01-24T07:58:17.578Z,30.03
2019-01-24T08:00:47.491Z,33.30
2019-01-24T08:03:16.995Z,33.97
2019-01-24T08:08:41.285Z,29.67
2019-01-24T08:11:10.513Z,32.30
2019-01-24T08:13:39.989Z,31.00
2019-01-24T08:16:09.234Z,28.53
2019-01-24T08:18:38.518Z,31.20
2019-01-24T08:21:08.014Z,29.07
2019-01-24T08:23:37.200Z,33.73
2019-01-24T08:26:06.419Z,31.83
2019-01-24T08:28:35.617Z,30.27
2019-01-24T08:31:04.884Z,29.47
2019-01-24T08:33:34.140Z,28.10
2019-01-24T08:36:03.623Z,30.57
2019-01-24T08:38:32.821Z,31.03
2019-01-24T08:41:02.034Z,29.90
2019-01-24T08:43:31.214Z,30.10
2019-01-24T08:46:00.700Z,27.40
2019-01-24T08:48:29.927Z,25.27
2019-01-24T08:50:59.158Z,29.53
2019-01-24T08:53:28.346Z,30.57
2019-01-24T08:55:57.568Z,33.33
2019-01-24T08:58:27.071Z,32.37
2019-01-24T09:00:56.499Z,33.83
2019-01-24T09:03:26.231Z,30.83
2019-01-24T09:05:55.438Z,35.70
2019-01-24T09:08:24.638Z,34.23
2019-01-24T09:10:53.821Z,34.77
2019-01-24T09:13:23.073Z,37.13
2019-01-24T09:15:52.371Z,31.97
2019-01-24T09:18:22.279Z,36.93
2019-01-24T09:20:51.476Z,36.03
2019-01-24T09:23:21.082Z,35.77
2019-01-24T09:25:50.304Z,37.43
2019-01-24T09:28:19.829Z,37.20
2019-01-24T09:30:49.292Z,34.20
2019-01-24T09:33:18.567Z,38.73
2019-01-24T09:35:47.855Z,36.07
2019-01-24T09:38:17.089Z,37.27
2019-01-24T09:40:46.278Z,38.67
2019-01-24T09:43:15.524Z,35.40
2019-01-24T09:45:44.715Z,36.73
2019-01-24T09:48:14.052Z,38.43
2019-01-24T09:50:43.503Z,37.10
2019-01-24T09:53:13.061Z,37.63
2019-01-24T09:55:42.243Z,39.67
2019-01-24T09:58:11.723Z,35.63
2019-01-24T10:00:41.189Z,38.13
2019-01-24T10:03:11.104Z,36.57
2019-01-24T10:05:40.586Z,39.13
2019-01-24T10:08:09.820Z,38.00
2019-01-24T10:10:39.018Z,37.20
2019-01-24T10:13:08.531Z,36.33
2019-01-24T10:15:37.748Z,34.97
2019-01-24T10:18:27.486Z,35.97
2019-01-24T10:20:57.183Z,36.57
2019-01-24T10:23:26.391Z,39.03
2019-01-24T10:25:55.868Z,38.07
2019-01-24T10:28:44.143Z,36.47
2019-01-24T10:31:13.326Z,36.13
2019-01-24T10:33:42.530Z,35.93
2019-01-24T10:36:12.094Z,38.73
2019-01-24T10:38:41.311Z,34.77
2019-01-24T10:41:10.653Z,36.83
2019-01-24T10:43:39.863Z,35.00
2019-01-24T10:46:09.058Z,32.60
2019-01-24T10:48:38.381Z,35.80
2019-01-24T10:51:07.955Z,33.97
2019-01-24T10:53:37.157Z,33.43
2019-01-24T10:56:06.734Z,36.80
2019-01-24T10:58:36.238Z,35.10
2019-01-24T11:01:26.013Z,38.00
2019-01-24T11:03:55.212Z,36.63
2019-01-24T11:06:24.720Z,36.47
2019-01-24T11:08:53.932Z,36.27
2019-01-24T11:11:23.132Z,35.33
2019-01-24T11:13:52.331Z,36.17
2019-01-24T11:16:21.556Z,36.03
2019-01-24T11:18:50.776Z,41.23
2019-01-24T11:21:19.957Z,39.23
2019-01-24T11:23:49.427Z,37.43
2019-01-24T11:26:19.042Z,35.50
2019-01-24T11:28:48.243Z,36.73
2019-01-24T11:31:17.479Z,34.63
2019-01-24T11:33:46.720Z,38.07
2019-01-24T11:36:15.915Z,37.97
2019-01-24T11:38:45.134Z,37.23
2019-01-24T11:41:14.306Z,36.63
2019-01-24T11:43:46.242Z,36.67
2019-01-24T11:46:15.450Z,34.17
2019-01-24T11:48:45.141Z,33.13
2019-01-24T11:51:14.338Z,34.17
2019-01-24T11:53:43.640Z,34.23
2019-01-24T11:56:12.967Z,31.07
2019-01-24T11:58:42.752Z,34.37
2019-01-24T12:01:12.135Z,31.83
2019-01-24T12:03:41.687Z,33.33
2019-01-24T12:06:10.906Z,34.83
2019-01-24T12:08:40.376Z,33.83
2019-01-24T12:11:09.914Z,34.50
2019-01-24T12:13:39.108Z,33.53
2019-01-24T12:16:08.403Z,32.20
2019-01-24T12:18:38.046Z,28.10
2019-01-24T12:21:07.234Z,31.37
2019-01-24T12:23:36.790Z,34.23
2019-01-24T12:26:06.399Z,34.07
2019-01-24T12:28:35.860Z,32.07
2019-01-24T12:31:05.068Z,35.93
2019-01-24T12:36:33.114Z,32.87
2019-01-24T12:39:02.340Z,36.37
2019-01-24T12:41:31.916Z,35.63
2019-01-24T12:44:01.938Z,31.73
2019-01-24T12:46:31.459Z,35.57
2019-01-24T12:49:01.010Z,34.00
2019-01-24T12:51:30.830Z,35.20
2019-01-24T12:54:00.498Z,35.10
2019-01-24T12:56:30.241Z,33.40
2019-01-24T12:58:59.782Z,33.80
2019-01-24T13:01:29.374Z,32.07
2019-01-24T13:03:58.830Z,35.60
2019-01-24T13:06:28.441Z,34.87
2019-01-24T13:08:58.181Z,36.20
2019-01-24T13:11:27.725Z,37.67
2019-01-24T13:13:56.983Z,34.80
2019-01-24T13:16:26.462Z,37.33
2019-01-24T13:18:55.903Z,33.53
2019-01-24T13:21:25.528Z,34.00
2019-01-24T13:23:55.486Z,36.50
2019-01-24T13:26:25.192Z,35.00
2019-01-24T13:28:55.254Z,34.43
2019-01-24T13:31:24.457Z,35.83
2019-01-24T13:33:54.198Z,35.47
2019-01-24T13:36:24.592Z,34.77
2019-01-24T13:38:54.689Z,36.40
2019-01-24T13:41:24.312Z,36.63
2019-01-24T13:43:53.812Z,40.17
2019-01-24T13:46:23.416Z,36.07
2019-01-24T13:48:53.262Z,33.90
2019-01-24T13:51:22.468Z,35.33
2019-01-24T13:53:52.347Z,37.70
2019-01-24T13:56:21.910Z,34.30
2019-01-24T13:58:51.186Z,34.73
2019-01-24T14:01:20.509Z,31.83
2019-01-24T14:03:54.140Z,36.37
2019-01-24T14:06:23.735Z,37.93
2019-01-24T14:08:53.231Z,33.73
2019-01-24T14:11:22.418Z,33.73
2019-01-24T14:13:52.289Z,30.90
2019-01-24T14:16:21.884Z,33.70
2019-01-24T14:18:51.091Z,33.47
2019-01-24T14:21:20.629Z,36.70
2019-01-24T14:23:50.490Z,37.23
2019-01-24T14:26:20.345Z,35.53
2019-01-24T14:28:49.833Z,35.33
2019-01-24T14:31:19.328Z,35.87
2019-01-24T14:33:48.874Z,35.33
2019-01-24T14:36:25.116Z,34.40
2019-01-24T14:38:49.712Z,35.80
2019-01-24T14:41:58.637Z,35.97
2019-01-24T14:44:28.096Z,35.83
2019-01-24T14:46:58.129Z,34.87
2019-01-24T14:49:28.275Z,38.77
2019-01-24T14:51:58.209Z,38.67
2019-01-24T14:54:27.831Z,36.00
2019-01-24T14:56:57.330Z,38.17
2019-01-24T14:59:27.155Z,36.50
2019-01-24T15:01:56.343Z,35.67
2019-01-24T15:04:25.933Z,35.83
2019-01-24T15:06:55.410Z,37.80
2019-01-24T15:09:24.668Z,37.53
2019-01-24T15:11:54.121Z,37.63
2019-01-24T15:14:23.670Z,36.10
2019-01-24T15:16:53.964Z,36.40
2019-01-24T15:19:23.431Z,36.43
2019-01-24T15:21:53.232Z,36.13
2019-01-24T15:24:23.441Z,37.10
2019-01-24T15:26:53.350Z,37.07
2019-01-24T15:29:23.089Z,36.10
2019-01-24T15:31:52.285Z,35.90
2019-01-24T15:34:22.194Z,35.53
2019-01-24T15:36:51.991Z,37.00
2019-01-24T15:39:21.678Z,37.57
2019-01-24T15:41:51.270Z,37.67
2019-01-24T15:44:20.823Z,35.93
2019-01-24T15:46:50.640Z,37.77
2019-01-24T15:49:20.718Z,34.37
2019-01-24T15:54:38.996Z,38.73
2019-01-24T15:57:08.239Z,38.37
2019-01-24T15:59:37.526Z,37.43
2019-01-24T16:02:06.808Z,35.37
2019-01-24T16:04:36.326Z,37.00
2019-01-24T16:07:05.566Z,35.90
2019-01-24T16:09:34.817Z,36.33
2019-01-24T16:12:04.291Z,34.63
2019-01-24T16:14:53.204Z,36.67
2019-01-24T16:17:22.772Z,36.27
2019-01-24T16:19:52.570Z,35.77
2019-01-24T16:22:22.457Z,38.10
2019-01-24T16:24:51.687Z,35.57
2019-01-24T16:27:21.566Z,37.87
2019-01-24T16:29:51.029Z,37.27
2019-01-24T16:32:20.792Z,37.13
2019-01-24T16:34:51.577Z,38.20
2019-01-24T16:37:40.606Z,35.47
2019-01-24T16:40:11.364Z,39.33
2019-01-24T16:42:40.589Z,35.30
2019-01-24T16:45:12.947Z,38.23
2019-01-24T16:48:01.784Z,38.07
2019-01-24T16:50:31.290Z,36.23
2019-01-24T16:53:00.476Z,36.00
2019-01-24T16:55:48.773Z,35.30
2019-01-24T16:58:18.253Z,34.90
2019-01-24T17:01:08.420Z,37.53
2019-01-24T17:03:57.144Z,35.93
2019-01-24T17:06:45.573Z,36.07
2019-01-24T17:09:14.784Z,37.47
2019-01-24T17:12:03.131Z,38.40
2019-01-24T17:14:32.879Z,35.90
2019-01-24T17:17:13.708Z,37.83
2019-01-24T17:19:43.195Z,38.13
2019-01-24T17:22:31.705Z,38.03
2019-01-24T17:25:01.194Z,37.30
2019-01-24T17:27:30.655Z,36.90
2019-01-24T17:29:59.844Z,38.57
2019-01-24T17:32:29.558Z,37.30
2019-01-24T17:34:58.808Z,39.33
2019-01-24T17:37:28.751Z,37.70
2019-01-24T17:39:58.276Z,38.90
2019-01-24T17:42:27.484Z,39.30
2019-01-24T17:44:56.987Z,38.10
2019-01-24T17:47:26.289Z,36.40
2019-01-24T17:49:57.333Z,37.37
2019-01-24T17:52:26.616Z,37.13
2019-01-24T17:54:55.995Z,36.33
2019-01-24T17:57:25.298Z,36.97
2019-01-24T17:59:55.083Z,37.43
2019-01-24T18:02:43.970Z,38.67
2019-01-24T18:05:13.244Z,36.97
2019-01-24T18:07:42.595Z,36.17
2019-01-24T18:10:35.989Z,37.43
2019-01-24T18:13:05.920Z,37.43
2019-01-24T18:15:35.513Z,36.67
2019-01-24T18:18:25.433Z,38.10
2019-01-24T18:20:55.047Z,38.83
2019-01-24T18:23:43.344Z,37.27
2019-01-24T18:26:12.821Z,37.27
2019-01-24T18:28:42.351Z,38.60
2019-01-24T18:31:11.549Z,37.83
2019-01-24T18:33:41.143Z,36.37
2019-01-24T18:36:10.637Z,36.83
2019-01-24T18:38:39.810Z,37.77
2019-01-24T18:41:09.045Z,35.83
2019-01-24T18:43:38.197Z,36.67
2019-01-24T18:46:07.636Z,38.07
2019-01-24T18:48:37.267Z,37.80
2019-01-24T18:51:06.491Z,38.63
2019-01-24T18:53:35.734Z,36.43
2019-01-24T18:56:05.286Z,37.57
2019-01-24T18:58:35.001Z,37.17
2019-01-24T19:01:05.898Z,38.70
2019-01-24T19:03:35.115Z,37.20
2019-01-24T19:06:23.387Z,40.03
2019-01-24T19:08:52.951Z,37.77
2019-01-24T19:11:41.235Z,38.97
2019-01-24T19:14:10.718Z,36.47
2019-01-24T19:16:39.909Z,38.10
2019-01-24T19:19:09.630Z,35.73
2019-01-24T19:21:39.289Z,36.80
2019-01-24T19:24:08.752Z,35.80
2019-01-24T19:26:37.969Z,37.83
2019-01-24T19:29:07.163Z,38.30
2019-01-24T19:31:36.604Z,35.90
2019-01-24T19:34:06.034Z,38.80
2019-01-24T19:36:35.210Z,37.80
2019-01-24T19:39:24.894Z,36.77
2019-01-24T19:41:54.436Z,37.67
2019-01-24T19:44:23.913Z,37.70
2019-01-24T19:46:53.110Z,36.70
2019-01-24T19:49:22.323Z,36.83
2019-01-24T19:51:51.504Z,37.50
2019-01-24T19:54:41.191Z,36.90
2019-01-24T19:57:10.667Z,36.87
2019-01-24T19:59:40.198Z,38.90
2019-01-24T20:02:09.827Z,36.07
2019-01-24T20:04:39.022Z,36.93
2019-01-24T20:07:08.193Z,36.20
2019-01-24T20:09:37.424Z,38.20
2019-01-24T20:12:07.386Z,38.33
2019-01-24T20:14:36.857Z,38.77
2019-01-24T20:17:06.078Z,38.33
2019-01-24T20:19:54.825Z,37.50
2019-01-24T20:22:24.423Z,38.17
2019-01-24T20:24:53.859Z,36.87
2019-01-24T20:27:42.170Z,37.00
2019-01-24T20:30:14.885Z,37.20
2019-01-24T20:32:44.113Z,36.57
2019-01-24T20:35:16.658Z,36.97
2019-01-24T20:40:41.327Z,38.77
2019-01-24T20:43:12.035Z,37.03
2019-01-24T20:45:41.268Z,39.33
2019-01-24T20:48:10.552Z,39.57
2019-01-24T20:50:39.812Z,37.30
2019-01-24T20:53:09.477Z,39.13
2019-01-24T20:55:38.765Z,37.50
2019-01-24T20:58:08.394Z,36.93
2019-01-24T21:00:37.648Z,39.47
2019-01-24T21:03:25.928Z,37.97
2019-01-24T21:05:55.117Z,39.33
2019-01-24T21:08:24.321Z,38.03
2019-01-24T21:10:53.487Z,37.40
2019-01-24T21:13:22.714Z,37.80
2019-01-24T21:15:52.141Z,38.17
2019-01-24T21:18:21.665Z,38.30
2019-01-24T21:21:10.286Z,39.57
2019-01-24T21:23:39.498Z,39.23
2019-01-24T21:26:08.948Z,39.17
2019-01-24T21:28:38.146Z,38.07
2019-01-24T21:31:07.689Z,40.03
2019-01-24T21:33:36.893Z,39.73
2019-01-24T21:36:06.086Z,39.50
2019-01-24T21:38:35.550Z,40.80
2019-01-24T21:41:04.826Z,41.50
2019-01-24T21:43:34.090Z,41.40
2019-01-24T21:46:03.345Z,41.20
2019-01-24T21:48:53.197Z,40.40
2019-01-24T21:51:22.400Z,39.77
2019-01-24T21:53:52.079Z,38.27
2019-01-24T21:56:40.327Z,40.87
2019-01-24T21:59:09.568Z,38.90
2019-01-24T22:01:38.757Z,40.30
2019-01-24T22:04:08.309Z,40.13
2019-01-24T22:06:37.910Z,39.27
2019-01-24T22:09:09.684Z,39.83
2019-01-24T22:11:38.858Z,39.73
2019-01-24T22:14:08.068Z,39.17
2019-01-24T22:16:37.492Z,39.60
2019-01-24T22:19:07.052Z,38.97
2019-01-24T22:21:36.239Z,40.30
2019-01-24T22:24:05.858Z,41.80
2019-01-24T22:26:35.051Z,39.97
2019-01-24T22:29:04.749Z,40.33
2019-01-24T22:31:33.941Z,38.83
2019-01-24T22:34:03.474Z,41.67
2019-01-24T22:36:32.663Z,40.63
2019-01-24T22:39:02.150Z,42.60
2019-01-24T22:47:04.979Z,41.77
2019-01-24T22:49:34.215Z,40.77
2019-01-24T22:52:23.616Z,40.33
2019-01-24T22:54:53.443Z,41.47
2019-01-24T22:57:22.817Z,42.53
2019-01-24T22:59:52.047Z,43.03
2019-01-24T23:02:40.863Z,42.10
2019-01-24T23:05:10.134Z,44.67
2019-01-24T23:07:39.341Z,43.10
2019-01-24T23:10:09.441Z,43.93
2019-01-24T23:12:38.664Z,41.07
2019-01-24T23:15:47.301Z,40.87
2019-01-24T23:18:16.514Z,41.63
2019-01-24T23:20:45.734Z,39.90
2019-01-24T23:23:15.279Z,42.63
2019-01-24T23:25:44.476Z,40.60
2019-01-24T23:28:13.652Z,40.73
2019-01-24T23:30:42.867Z,43.03
2019-01-24T23:33:12.656Z,43.37
2019-01-24T23:35:41.859Z,42.77
2019-01-24T23:38:11.038Z,41.37
2019-01-24T23:40:40.560Z,44.40
2019-01-24T23:43:09.843Z,42.33
2019-01-24T23:45:39.055Z,41.77
2019-01-24T23:48:08.230Z,42.73
2019-01-24T23:50:37.445Z,43.67
2019-01-24T23:53:06.899Z,42.23
2019-01-24T23:55:36.093Z,43.47
2019-01-24T23:58:05.378Z,43.60
